createdAt,value
2019-05-13T00:01:43.649Z,16.32
2019-05-13T00:04:10.445Z,17.32
2019-05-13T00:06:50.131Z,16.40
2019-05-13T00:09:06.475Z,18.05
2019-05-13T00:11:34.626Z,17.82
2019-05-13T00:14:04.368Z,17.15
2019-05-13T00:16:31.849Z,19.20
2019-05-13T00:19:00.041Z,17.77
2019-05-13T00:21:26.868Z,18.65
2019-05-13T00:23:53.661Z,16.65
2019-05-13T00:26:20.501Z,17.93
2019-05-13T00:28:47.290Z,16.50
2019-05-13T00:31:14.129Z,18.30
2019-05-13T00:33:40.963Z,17.82
2019-05-13T00:36:07.752Z,16.93
2019-05-13T00:38:34.585Z,15.10
2019-05-13T00:41:03.519Z,14.25
2019-05-13T00:43:30.728Z,15.20
2019-05-13T00:45:57.549Z,15.58
2019-05-13T00:48:24.333Z,15.90
2019-05-13T00:50:51.168Z,16.37
2019-05-13T00:53:17.944Z,15.05
2019-05-13T00:55:44.785Z,13.35
2019-05-13T00:58:13.753Z,14.05
2019-05-13T01:00:44.352Z,13.83
2019-05-13T01:03:13.901Z,14.03
2019-05-13T01:05:40.273Z,15.10
2019-05-13T01:08:07.116Z,15.60
2019-05-13T01:10:34.668Z,14.90
2019-05-13T01:13:04.308Z,13.60
2019-05-13T01:15:30.558Z,14.58
2019-05-13T01:17:57.384Z,14.10
2019-05-13T01:20:24.156Z,13.00
2019-05-13T01:22:53.979Z,13.83
2019-05-13T01:25:20.237Z,13.83
2019-05-13T01:27:47.015Z,13.10
2019-05-13T01:30:15.113Z,13.98
2019-05-13T01:32:44.612Z,14.50
2019-05-13T01:35:11.122Z,13.53
2019-05-13T01:37:42.361Z,12.90
2019-05-13T01:40:07.436Z,12.78
2019-05-13T01:42:34.273Z,13.30
2019-05-13T01:45:01.118Z,13.15
2019-05-13T01:47:27.969Z,11.70
2019-05-13T01:49:54.780Z,13.40
2019-05-13T01:52:23.653Z,13.10
2019-05-13T01:54:50.205Z,13.60
2019-05-13T01:57:17.041Z,14.60
2019-05-13T01:59:43.870Z,13.98
2019-05-13T02:02:10.713Z,15.43
2019-05-13T02:04:37.494Z,15.50
2019-05-13T02:07:04.455Z,15.40
2019-05-13T02:09:33.684Z,15.93
2019-05-13T02:12:00.276Z,14.78
2019-05-13T02:14:27.060Z,14.40
2019-05-13T02:16:53.918Z,12.50
2019-05-13T02:19:20.685Z,13.90
2019-05-13T02:21:47.520Z,14.65
2019-05-13T02:24:14.588Z,13.30
2019-05-13T02:26:43.706Z,13.75
2019-05-13T02:29:10.225Z,13.25
2019-05-13T02:31:45.377Z,14.00
2019-05-13T02:34:06.292Z,13.78
2019-05-13T02:36:33.297Z,13.28
2019-05-13T02:39:02.467Z,12.20
2019-05-13T02:41:28.804Z,11.48
2019-05-13T02:43:55.649Z,11.40
2019-05-13T02:46:22.750Z,11.30
2019-05-13T02:48:52.528Z,11.28
2019-05-13T02:51:18.334Z,12.13
2019-05-13T02:53:45.173Z,11.83
2019-05-13T02:56:11.950Z,11.30
2019-05-13T02:58:42.550Z,11.05
2019-05-13T03:01:07.386Z,12.00
2019-05-13T03:03:34.214Z,10.70
2019-05-13T03:06:02.927Z,12.00
2019-05-13T03:08:41.042Z,11.00
2019-05-13T03:10:58.285Z,10.90
2019-05-13T03:13:25.120Z,11.43
2019-05-13T03:16:02.525Z,12.55
2019-05-13T03:18:28.370Z,11.50
2019-05-13T03:20:55.164Z,10.82
2019-05-13T03:23:22.916Z,12.40
2019-05-13T03:25:53.303Z,12.05
2019-05-13T03:28:18.664Z,12.07
2019-05-13T03:30:46.313Z,10.60
2019-05-13T03:33:18.594Z,13.50
2019-05-13T03:35:45.725Z,13.80
2019-05-13T03:38:12.747Z,12.90
2019-05-13T03:40:42.587Z,13.68
2019-05-13T03:43:12.582Z,13.35
2019-05-13T03:45:38.894Z,11.80
2019-05-13T03:48:05.736Z,12.70
2019-05-13T03:50:34.633Z,12.85
2019-05-13T03:53:03.000Z,13.00
2019-05-13T03:55:32.888Z,13.30
2019-05-13T03:58:02.588Z,13.72
2019-05-13T04:00:28.581Z,13.90
2019-05-13T04:02:55.414Z,17.90
2019-05-13T04:05:23.208Z,18.07
2019-05-13T04:07:52.315Z,17.92
2019-05-13T04:10:22.420Z,15.72
2019-05-13T04:12:47.970Z,13.30
2019-05-13T04:15:15.198Z,13.88
2019-05-13T04:17:42.911Z,13.30
2019-05-13T04:20:12.635Z,12.82
2019-05-13T04:22:42.309Z,14.73
2019-05-13T04:25:08.145Z,16.07
2019-05-13T04:27:34.925Z,13.97
2019-05-13T04:30:03.511Z,13.10
2019-05-13T04:32:33.464Z,14.98
2019-05-13T04:34:59.352Z,14.13
2019-05-13T04:37:26.182Z,13.32
2019-05-13T04:39:56.290Z,13.13
2019-05-13T04:42:23.204Z,12.73
2019-05-13T04:44:52.945Z,12.95
2019-05-13T04:47:18.836Z,13.15
2019-05-13T04:49:45.618Z,12.60
2019-05-13T04:52:13.655Z,14.20
2019-05-13T04:54:43.347Z,11.33
2019-05-13T04:57:12.296Z,13.50
2019-05-13T04:59:44.193Z,12.40
2019-05-13T05:02:39.983Z,11.80
2019-05-13T05:05:04.554Z,12.60
2019-05-13T05:08:07.168Z,12.37
2019-05-13T05:10:58.488Z,11.40
2019-05-13T05:14:02.870Z,12.80
2019-05-13T05:17:02.911Z,12.18
2019-05-13T05:20:03.810Z,11.90
2019-05-13T05:22:43.944Z,11.83
2019-05-13T05:25:46.376Z,12.78
2019-05-13T05:28:25.528Z,11.38
2019-05-13T05:31:29.520Z,10.78
2019-05-13T05:34:27.605Z,12.05
2019-05-13T05:37:04.354Z,11.28
2019-05-13T05:39:31.512Z,11.33
2019-05-13T05:41:58.664Z,11.10
2019-05-13T05:44:28.113Z,11.10
2019-05-13T05:46:58.102Z,11.38
2019-05-13T05:49:25.684Z,9.90
2019-05-13T05:52:01.777Z,9.98
2019-05-13T05:54:32.008Z,9.45
2019-05-13T05:57:01.290Z,9.30
2019-05-13T05:59:29.029Z,9.30
2019-05-13T06:01:56.101Z,9.20
2019-05-13T06:04:24.536Z,8.70
2019-05-13T06:06:53.881Z,9.80
2019-05-13T06:09:21.295Z,8.28
2019-05-13T06:11:48.312Z,9.10
2019-05-13T06:14:15.157Z,8.50
2019-05-13T06:16:42.671Z,8.50
2019-05-13T06:19:11.928Z,8.30
2019-05-13T06:21:38.215Z,7.20
2019-05-13T06:24:05.050Z,6.50
2019-05-13T06:26:31.840Z,6.65
2019-05-13T06:28:58.879Z,6.00
2019-05-13T06:31:25.807Z,7.00
2019-05-13T06:33:52.599Z,5.35
2019-05-13T06:36:21.947Z,5.97
2019-05-13T06:38:48.044Z,6.50
2019-05-13T06:41:15.649Z,6.33
2019-05-13T06:43:42.489Z,6.40
2019-05-13T06:46:09.265Z,6.08
2019-05-13T06:48:36.097Z,6.30
2019-05-13T06:51:02.883Z,6.45
2019-05-13T06:53:32.067Z,6.28
2019-05-13T06:55:58.296Z,6.30
2019-05-13T06:58:25.145Z,6.37
2019-05-13T07:00:52.008Z,6.85
2019-05-13T07:03:21.780Z,6.60
2019-05-13T07:05:47.697Z,5.50
2019-05-13T07:08:14.534Z,6.37
2019-05-13T07:10:41.568Z,5.60
2019-05-13T07:13:11.067Z,5.45
2019-05-13T07:15:37.556Z,5.50
2019-05-13T07:18:04.388Z,5.10
2019-05-13T07:20:32.182Z,4.95
2019-05-13T07:23:01.659Z,4.70
2019-05-13T07:25:27.845Z,4.60
2019-05-13T07:27:54.748Z,4.80
2019-05-13T07:30:36.997Z,4.72
2019-05-13T07:33:03.888Z,4.43
2019-05-13T07:35:36.324Z,4.50
2019-05-13T07:38:02.220Z,4.70
2019-05-13T07:40:28.868Z,3.85
2019-05-13T07:42:55.712Z,3.90
2019-05-13T07:45:22.505Z,3.90
2019-05-13T07:47:51.811Z,3.87
2019-05-13T07:50:17.925Z,3.62
2019-05-13T07:52:45.105Z,4.10
2019-05-13T07:55:13.553Z,3.08
2019-05-13T07:57:42.330Z,3.12
2019-05-13T08:00:12.360Z,3.50
2019-05-13T08:02:38.822Z,2.90
2019-05-13T08:05:06.276Z,3.27
2019-05-13T08:07:33.072Z,2.70
2019-05-13T08:10:02.941Z,3.00
2019-05-13T08:12:28.508Z,2.98
2019-05-13T08:14:55.800Z,3.33
2019-05-13T08:17:22.696Z,2.47
2019-05-13T08:19:51.866Z,2.40
2019-05-13T08:22:18.168Z,2.92
2019-05-13T08:24:45.020Z,3.12
2019-05-13T08:27:11.947Z,3.10
2019-05-13T08:29:38.685Z,2.33
2019-05-13T08:32:05.518Z,2.72
2019-05-13T08:34:33.139Z,2.60
2019-05-13T08:37:02.993Z,2.70
2019-05-13T08:39:35.770Z,2.42
2019-05-13T08:42:11.722Z,2.90
2019-05-13T08:44:26.058Z,2.85
2019-05-13T08:46:53.296Z,2.60
2019-05-13T08:49:21.988Z,2.40
2019-05-13T08:51:48.725Z,3.00
2019-05-13T08:54:15.512Z,3.10
2019-05-13T08:56:42.369Z,2.83
2019-05-13T08:59:11.568Z,3.02
2019-05-13T09:01:38.544Z,2.62
2019-05-13T09:04:05.320Z,3.10
2019-05-13T09:06:32.983Z,2.60
2019-05-13T09:09:01.810Z,2.60
2019-05-13T09:11:28.517Z,2.12
2019-05-13T09:13:55.336Z,2.70
2019-05-13T09:16:22.116Z,2.80
2019-05-13T09:18:51.808Z,2.25
2019-05-13T09:21:17.629Z,2.00
2019-05-13T09:23:44.883Z,2.10
2019-05-13T09:26:12.133Z,2.00
2019-05-13T09:28:41.557Z,2.10
2019-05-13T09:31:07.591Z,2.00
2019-05-13T09:33:34.426Z,1.70
2019-05-13T09:36:02.198Z,2.25
2019-05-13T09:38:29.378Z,2.00
2019-05-13T09:40:56.210Z,2.35
2019-05-13T09:43:23.064Z,1.95
2019-05-13T09:45:52.054Z,2.00
2019-05-13T09:48:18.473Z,2.00
2019-05-13T09:50:45.310Z,2.08
2019-05-13T09:53:12.145Z,2.30
2019-05-13T09:55:41.342Z,1.87
2019-05-13T09:58:07.593Z,1.67
2019-05-13T10:00:36.968Z,2.27
2019-05-13T10:03:03.721Z,2.20
2019-05-13T10:05:31.659Z,2.00
2019-05-13T10:07:58.744Z,1.90
2019-05-13T10:10:25.529Z,2.20
2019-05-13T10:13:08.287Z,2.20
2019-05-13T10:15:22.124Z,2.30
2019-05-13T10:17:49.019Z,2.20
2019-05-13T10:20:21.071Z,2.60
2019-05-13T10:22:48.161Z,2.20
2019-05-13T10:25:17.312Z,2.45
2019-05-13T10:27:44.591Z,2.50
2019-05-13T10:30:13.262Z,2.20
2019-05-13T10:32:42.592Z,2.20
2019-05-13T10:35:09.341Z,2.58
2019-05-13T10:37:36.189Z,2.75
2019-05-13T10:40:04.081Z,2.00
2019-05-13T10:42:30.860Z,2.60
2019-05-13T10:44:57.707Z,2.40
2019-05-13T10:47:24.548Z,2.02
2019-05-13T10:49:52.303Z,2.20
2019-05-13T10:52:19.509Z,2.00
2019-05-13T10:54:46.291Z,2.30
2019-05-13T10:57:13.702Z,2.20
2019-05-13T10:59:40.809Z,2.33
2019-05-13T11:02:07.840Z,2.17
2019-05-13T11:04:34.627Z,2.12
2019-05-13T11:07:03.007Z,2.30
2019-05-13T11:09:32.470Z,2.12
2019-05-13T11:12:01.833Z,2.72
2019-05-13T11:14:27.319Z,2.17
2019-05-13T11:16:54.100Z,2.25
2019-05-13T11:19:23.124Z,2.40
2019-05-13T11:21:50.932Z,2.45
2019-05-13T11:24:17.861Z,2.50
2019-05-13T11:26:44.700Z,2.15
2019-05-13T11:29:12.115Z,2.42
2019-05-13T11:31:39.140Z,2.40
2019-05-13T11:34:05.941Z,2.22
2019-05-13T11:36:33.695Z,2.40
2019-05-13T11:39:03.058Z,2.50
2019-05-13T11:41:29.441Z,2.50
2019-05-13T11:44:12.060Z,3.10
2019-05-13T11:46:24.820Z,2.47
2019-05-13T11:48:52.043Z,2.35
2019-05-13T11:51:19.352Z,2.52
2019-05-13T11:53:46.355Z,2.50
2019-05-13T11:56:13.141Z,2.30
2019-05-13T11:58:43.083Z,2.35
2019-05-13T12:01:08.819Z,2.20
2019-05-13T12:03:35.644Z,2.10
2019-05-13T12:06:02.785Z,2.52
2019-05-13T12:08:33.117Z,2.20
2019-05-13T12:10:58.459Z,2.12
2019-05-13T12:13:25.302Z,1.80
2019-05-13T12:15:54.454Z,2.00
2019-05-13T12:18:23.679Z,2.08
2019-05-13T12:20:53.602Z,1.85
2019-05-13T12:23:18.344Z,2.12
2019-05-13T12:25:45.130Z,1.80
2019-05-13T12:28:11.964Z,1.87
2019-05-13T12:30:39.286Z,1.60
2019-05-13T12:33:07.407Z,2.10
2019-05-13T12:35:34.281Z,1.90
2019-05-13T12:38:01.113Z,2.10
2019-05-13T12:40:27.892Z,2.00
2019-05-13T12:42:55.536Z,1.70
2019-05-13T12:45:22.573Z,1.70
2019-05-13T12:47:49.573Z,1.90
2019-05-13T12:50:23.659Z,1.60
2019-05-13T12:52:51.493Z,2.20
2019-05-13T12:55:18.000Z,1.90
2019-05-13T12:57:44.784Z,2.10
2019-05-13T13:00:13.653Z,1.77
2019-05-13T13:02:40.464Z,2.12
2019-05-13T13:05:13.471Z,1.80
2019-05-13T13:07:41.312Z,2.10
2019-05-13T13:10:05.131Z,2.00
2019-05-13T13:12:36.028Z,2.22
2019-05-13T13:15:20.379Z,1.60
2019-05-13T13:17:29.224Z,2.20
2019-05-13T13:20:04.699Z,1.87
2019-05-13T13:22:25.528Z,1.80
2019-05-13T13:24:57.120Z,1.80
2019-05-13T13:27:37.782Z,1.77
2019-05-13T13:30:01.697Z,1.87
2019-05-13T13:32:18.612Z,1.70
2019-05-13T13:34:45.449Z,1.60
2019-05-13T13:37:12.328Z,1.70
2019-05-13T13:39:43.213Z,1.92
2019-05-13T13:42:08.357Z,1.85
2019-05-13T13:44:35.326Z,1.90
2019-05-13T13:47:02.192Z,1.60
2019-05-13T13:49:33.735Z,1.70
2019-05-13T13:51:57.607Z,1.80
2019-05-13T13:54:24.389Z,1.98
2019-05-13T13:56:55.834Z,1.57
2019-05-13T13:59:24.542Z,1.60
2019-05-13T14:01:53.665Z,1.60
2019-05-13T14:04:17.589Z,2.10
2019-05-13T14:09:13.021Z,2.67
2019-05-13T14:11:41.983Z,1.70
2019-05-13T14:14:08.533Z,1.87
2019-05-13T14:16:35.668Z,2.12
2019-05-13T14:19:02.794Z,1.60
2019-05-13T14:21:32.268Z,1.25
2019-05-13T14:23:58.719Z,1.50
2019-05-13T14:26:25.513Z,1.90
2019-05-13T14:28:53.694Z,1.80
2019-05-13T14:31:21.416Z,1.67
2019-05-13T14:33:48.550Z,1.50
2019-05-13T14:36:15.628Z,1.70
2019-05-13T14:38:42.410Z,1.55
2019-05-13T14:41:12.292Z,1.50
2019-05-13T14:43:38.801Z,1.45
2019-05-13T14:46:05.642Z,1.52
2019-05-13T14:48:33.113Z,1.80
2019-05-13T14:51:01.894Z,1.50
2019-05-13T14:53:28.764Z,1.60
2019-05-13T14:55:55.621Z,1.57
2019-05-13T14:58:22.449Z,1.70
2019-05-13T15:01:06.999Z,1.30
2019-05-13T15:03:17.912Z,1.53
2019-05-13T15:05:44.693Z,1.80
2019-05-13T15:08:11.495Z,1.70
2019-05-13T15:10:38.669Z,1.40
2019-05-13T15:13:05.462Z,1.50
2019-05-13T15:15:32.397Z,1.52
2019-05-13T15:18:01.275Z,1.62
2019-05-13T15:20:28.036Z,1.50
2019-05-13T15:22:54.817Z,1.35
2019-05-13T15:25:22.194Z,1.30
2019-05-13T15:27:49.448Z,1.65
2019-05-13T15:30:18.053Z,1.50
2019-05-13T15:32:44.889Z,1.40
2019-05-13T15:35:13.409Z,1.40
2019-05-13T15:37:41.753Z,1.60
2019-05-13T15:40:11.528Z,1.60
2019-05-13T15:42:37.737Z,1.40
2019-05-13T15:45:07.130Z,1.40
2019-05-13T15:47:33.986Z,1.60
2019-05-13T15:50:02.400Z,1.67
2019-05-13T15:52:31.681Z,1.30
2019-05-13T15:54:58.081Z,1.50
2019-05-13T15:57:24.858Z,1.70
2019-05-13T15:59:51.881Z,1.80
2019-05-13T16:02:18.800Z,1.60
2019-05-13T16:04:52.719Z,1.30
2019-05-13T16:07:14.205Z,1.63
2019-05-13T16:09:42.024Z,1.40
2019-05-13T16:12:09.200Z,1.40
2019-05-13T16:14:36.055Z,1.52
2019-05-13T16:17:03.005Z,1.60
2019-05-13T16:19:32.674Z,1.90
2019-05-13T16:22:01.339Z,1.62
2019-05-13T16:24:28.064Z,1.50
2019-05-13T16:26:55.013Z,1.50
2019-05-13T16:29:22.409Z,1.60
2019-05-13T16:31:51.392Z,1.57
2019-05-13T16:34:18.371Z,2.22
2019-05-13T16:36:45.326Z,1.65
2019-05-13T16:39:12.509Z,1.62
2019-05-13T16:41:39.533Z,2.90
2019-05-13T16:44:06.432Z,1.90
2019-05-13T16:46:33.286Z,1.40
2019-05-13T16:49:01.394Z,1.20
2019-05-13T16:51:28.420Z,1.52
2019-05-13T16:53:55.267Z,1.32
2019-05-13T16:56:27.773Z,1.42
2019-05-13T16:58:52.163Z,1.50
2019-05-13T17:01:19.150Z,1.40
2019-05-13T17:03:45.996Z,1.20
2019-05-13T17:06:12.914Z,1.60
2019-05-13T17:08:42.215Z,1.30
2019-05-13T17:11:08.505Z,1.50
2019-05-13T17:13:35.350Z,2.10
2019-05-13T17:16:02.185Z,2.00
2019-05-13T17:18:28.969Z,1.50
2019-05-13T17:20:55.813Z,1.60
2019-05-13T17:23:22.599Z,1.30
2019-05-13T17:25:51.825Z,1.40
2019-05-13T17:28:18.082Z,1.40
2019-05-13T17:30:44.931Z,1.45
2019-05-13T17:33:11.867Z,1.73
2019-05-13T17:35:38.856Z,1.50
2019-05-13T17:38:05.642Z,1.62
2019-05-13T17:40:32.481Z,1.60
2019-05-13T17:42:59.256Z,1.20
2019-05-13T17:45:26.112Z,1.50
2019-05-13T17:47:52.892Z,1.80
2019-05-13T17:50:22.078Z,1.67
2019-05-13T17:52:51.221Z,1.57
2019-05-13T17:55:17.761Z,1.40
2019-05-13T17:57:44.629Z,1.35
2019-05-13T18:00:13.713Z,1.62
2019-05-13T18:02:42.011Z,1.70
2019-05-13T18:05:12.011Z,1.70
2019-05-13T18:07:39.160Z,1.60
2019-05-13T18:10:06.504Z,1.60
2019-05-13T18:12:33.288Z,1.40
2019-05-13T18:15:02.250Z,1.32
2019-05-13T18:17:31.174Z,1.30
2019-05-13T18:19:58.201Z,1.35
2019-05-13T18:22:25.021Z,1.10
2019-05-13T18:24:52.016Z,1.60
2019-05-13T18:27:18.977Z,1.20
2019-05-13T18:29:45.825Z,1.10
2019-05-13T18:32:12.708Z,1.67
2019-05-13T18:34:39.496Z,1.50
2019-05-13T18:37:06.333Z,1.50
2019-05-13T18:39:33.267Z,1.40
2019-05-13T18:42:01.340Z,1.70
2019-05-13T18:44:28.124Z,1.75
2019-05-13T18:46:54.961Z,1.50
2019-05-13T18:49:21.800Z,1.55
2019-05-13T18:51:48.581Z,1.50
2019-05-13T18:54:15.425Z,1.43
2019-05-13T18:56:42.202Z,1.10
2019-05-13T18:59:09.073Z,1.30
2019-05-13T19:01:35.857Z,1.40
2019-05-13T19:04:02.697Z,1.20
2019-05-13T19:06:31.613Z,1.50
2019-05-13T19:08:58.114Z,1.20
2019-05-13T19:11:24.897Z,1.60
2019-05-13T19:13:52.200Z,1.30
2019-05-13T19:16:21.213Z,1.55
2019-05-13T19:18:47.745Z,1.50
2019-05-13T19:21:14.536Z,1.90
2019-05-13T19:23:41.922Z,1.40
2019-05-13T19:26:11.141Z,1.60
2019-05-13T19:28:37.509Z,1.40
2019-05-13T19:31:04.340Z,1.30
2019-05-13T19:33:31.306Z,1.42
2019-05-13T19:35:58.310Z,1.20
2019-05-13T19:38:25.196Z,1.57
2019-05-13T19:40:51.998Z,1.45
2019-05-13T19:43:18.834Z,1.70
2019-05-13T19:45:45.617Z,2.00
2019-05-13T19:48:12.452Z,2.10
2019-05-13T19:50:41.397Z,1.60
2019-05-13T19:53:07.870Z,1.80
2019-05-13T19:55:34.694Z,1.80
2019-05-13T19:58:01.853Z,5.80
2019-05-13T20:00:31.537Z,4.87
2019-05-13T20:02:57.997Z,3.60
2019-05-13T20:05:24.833Z,3.42
2019-05-13T20:07:52.284Z,2.70
2019-05-13T20:10:19.352Z,3.20
2019-05-13T20:12:46.144Z,2.80
2019-05-13T20:15:13.385Z,2.67
2019-05-13T20:17:41.595Z,2.37
2019-05-13T20:20:08.612Z,2.35
2019-05-13T20:22:35.404Z,2.83
2019-05-13T20:25:02.540Z,2.77
2019-05-13T20:27:31.553Z,2.90
2019-05-13T20:29:57.964Z,2.15
2019-05-13T20:32:25.763Z,2.22
2019-05-13T20:34:52.542Z,2.33
2019-05-13T20:37:21.393Z,2.50
2019-05-13T20:39:48.377Z,3.05
2019-05-13T20:42:15.204Z,2.20
2019-05-13T20:44:42.130Z,2.00
2019-05-13T20:47:09.115Z,2.40
2019-05-13T20:49:36.065Z,2.75
2019-05-13T20:52:03.105Z,2.50
2019-05-13T20:54:31.384Z,2.30
2019-05-13T20:56:58.530Z,2.40
2019-05-13T20:59:25.427Z,1.92
2019-05-13T21:01:52.248Z,2.10
2019-05-13T21:04:21.382Z,2.30
2019-05-13T21:06:47.773Z,2.00
2019-05-13T21:09:17.108Z,2.50
2019-05-13T21:11:43.608Z,2.60
2019-05-13T21:14:10.386Z,2.10
2019-05-13T21:16:37.218Z,2.27
2019-05-13T21:19:04.057Z,2.40
2019-05-13T21:21:31.178Z,2.40
2019-05-13T21:23:57.972Z,2.25
2019-05-13T21:26:24.810Z,2.33
2019-05-13T21:28:52.208Z,2.17
2019-05-13T21:31:21.358Z,2.58
2019-05-13T21:33:47.808Z,2.50
2019-05-13T21:36:14.589Z,2.87
2019-05-13T21:38:41.425Z,2.20
2019-05-13T21:41:08.219Z,2.90
2019-05-13T21:43:35.035Z,2.50
2019-05-13T21:46:02.152Z,2.30
2019-05-13T21:48:29.112Z,2.50
2019-05-13T21:50:55.957Z,2.60
2019-05-13T21:53:24.500Z,2.58
2019-05-13T21:55:52.077Z,2.90
2019-05-13T21:58:19.053Z,2.30
2019-05-13T22:00:47.105Z,2.10
2019-05-13T22:03:13.852Z,1.82
2019-05-13T22:05:40.634Z,2.10
2019-05-13T22:08:07.477Z,2.15
2019-05-13T22:10:34.364Z,2.55
2019-05-13T22:13:01.533Z,2.30
2019-05-13T22:15:32.296Z,2.02
2019-05-13T22:17:58.928Z,2.50
2019-05-13T22:20:25.712Z,2.10
2019-05-13T22:22:53.548Z,2.60
2019-05-13T22:25:20.332Z,2.20
2019-05-13T22:27:47.208Z,2.40
2019-05-13T22:30:14.789Z,1.98
2019-05-13T22:32:41.841Z,2.10
2019-05-13T22:35:11.059Z,2.10
2019-05-13T22:37:37.702Z,1.80
2019-05-13T22:40:04.629Z,1.90
2019-05-13T22:42:32.230Z,1.70
2019-05-13T22:44:59.404Z,1.90
2019-05-13T22:47:26.193Z,1.95
2019-05-13T22:49:53.032Z,1.87
2019-05-13T22:52:21.776Z,1.72
2019-05-13T22:54:48.441Z,1.90
2019-05-13T22:57:17.124Z,2.00
2019-05-13T22:59:43.970Z,1.72
2019-05-13T23:02:10.904Z,1.80
2019-05-13T23:04:37.687Z,1.90
2019-05-13T23:07:04.513Z,1.70
2019-05-13T23:09:32.155Z,1.87
2019-05-13T23:11:59.133Z,2.10
2019-05-13T23:14:25.952Z,2.20
2019-05-13T23:16:53.485Z,1.90
2019-05-13T23:19:21.726Z,2.02
2019-05-13T23:21:51.003Z,2.00
2019-05-13T23:24:17.348Z,2.10
2019-05-13T23:26:44.133Z,2.30
2019-05-13T23:29:11.528Z,2.10
2019-05-13T23:31:38.314Z,1.80
2019-05-13T23:34:05.149Z,1.87
2019-05-13T23:36:31.993Z,1.60
2019-05-13T23:39:00.926Z,1.80
2019-05-13T23:41:27.368Z,1.80
2019-05-13T23:43:54.205Z,1.95
2019-05-13T23:46:22.281Z,2.00
2019-05-13T23:48:49.221Z,2.50
2019-05-13T23:51:16.053Z,2.00
2019-05-13T23:53:42.831Z,1.72
2019-05-13T23:56:11.209Z,2.40
2019-05-13T23:58:38.057Z,2.10
